Aérodrome :
LOGIN :

S'inscrire | Disclaimer

   EN    FR    IT 

 










Légende :    VFR   VFR Marginal   IFR   IFR Intensif   IFR Très Intensif
Visi : 
Plafond : 
>= 8 km
>= 3000ft
5 à 8 km
1000 à 3000 ft
1500m à 5 km
500 à 1000 ft
800 à 1500m
200 à 500 ft
< 800m
< 200 ft
Symboles :   Orages  Brouillard  Fortes neiges  Fortes précipitations  Vent > 20 kt
SIGMETs :   Divers  Orages  Givrage  Turbulence  Onde Orograph.  Cendres Volcan.







- Altitude de l'aérodrome : 20 ft
- Code IATA : BJA


DAAE - Soummam - Bejaia

DERNIER METAR :
  • 231900Z 09004KT 9999 FEW020 BKN040 26/21 Q1016

METARs EXPIRÉS :
  • 231800Z 08005KT 9999 FEW020 SCT036 26/21 Q1016
  • 231700Z 06005KT 9999 FEW020 SCT090 27/20 Q1016

TAF TAF DAAE
Valide du 23 à 18h jusqu'au 24 à 18h UTC


231700Z 2318/2418 04008KT 9999 FEW020 SCT100
PROB30
TEMPO 2318/2321 FEW020TCU
BECMG 2319/2321 19010KT
PROB30
TEMPO 2400/2406 VRB02KT 2000 BR BKN010
TEMPO 2406/2415 FEW023TCU
BECMG 2406/2408 01010KT
Pas de NOTAMs connus pour ce terrain.



MET'MAP, la Météo Aéronautique d'un coup d'oeil ! - Copyright ORBIFLY Décembre 2007 - Disclaimer

ORBIFLY MET'MAP TEAM :

Programmation & Développement : Alexandra Zaïnal
Conception & Développement : Baudouin d'Aumeries
Co-Programmation & Développement : Marc-Olivier Méhu
Soutien technique & logistique : Manuel Goepfert

Contact : metmap@orbifly.com




SOURCES & CREDITS :

   NOAA